Time;durP1;ratioP1;P1;durP2;ratioP2;P2;SDS_P1;SDS_P2;PMS_P1;PMS_P2;Temp;Humidity;BMP_temperature;BMP_pressure;BME280_temperature;BME280_humidity;BME280_pressure;Samples;Min_cycle;Max_cycle;Signal;HPM_P1;HPM_P2
2023/05/31 20:45:31;;;;;;;12.70;4.25;;;;;;;23.12;45.02;100929.63;5106935;27;20377;-82
2023/05/31 20:48:23;;;;;;;10.05;4.45;;;;;;;23.16;45.28;100922.13;5117427;28;20051;-80
2023/05/31 20:51:18;;;;;;;11.45;4.05;;;;;;;23.14;45.46;100941.13;5120008;28;20043;-82
2023/05/31 20:54:12;;;;;;;9.60;3.65;;;;;;;23.06;45.71;100923.69;5103020;28;20039;-82
2023/05/31 20:57:07;;;;;;;6.43;3.80;;;;;;;23.12;45.72;100932.41;5102852;28;20042;-82
2023/05/31 21:00:02;;;;;;;4.97;2.90;;;;;;;23.10;45.95;100932.81;5083455;28;20051;-83
2023/05/31 21:02:57;;;;;;;8.10;4.30;;;;;;;23.22;45.59;100926.06;5085029;28;20046;-82
2023/05/31 21:05:51;;;;;;;6.25;3.13;;;;;;;23.28;45.05;100928.06;5086410;28;20055;-82
2023/05/31 21:08:43;;;;;;;7.28;3.35;;;;;;;23.40;44.85;100932.44;5083562;28;20051;-82
2023/05/31 21:11:38;;;;;;;5.47;2.53;;;;;;;23.50;44.63;100930.88;5085993;28;20059;-81
2023/05/31 21:14:30;;;;;;;6.25;3.03;;;;;;;23.37;44.85;100928.44;5102404;28;20395;-82
2023/05/31 21:17:25;;;;;;;6.10;3.17;;;;;;;23.32;44.66;100928.84;5104256;28;20055;-82
2023/05/31 21:20:20;;;;;;;7.78;3.63;;;;;;;23.37;44.56;100930.44;5098778;28;20043;-81
2023/05/31 21:23:14;;;;;;;4.07;2.90;;;;;;;23.41;44.50;100936.81;5100006;28;20411;-81
2023/05/31 21:26:09;;;;;;;6.30;3.13;;;;;;;23.37;44.61;100935.97;5103445;28;20043;-82
2023/05/31 21:28:58;;;;;;;7.68;3.13;;;;;;;23.36;44.62;100931.66;5101946;28;20047;-81
2023/05/31 21:31:53;;;;;;;5.40;3.00;;;;;;;23.33;44.26;100932.41;5092147;28;20043;-82
2023/05/31 21:34:47;;;;;;;11.38;3.75;;;;;;;23.31;44.43;100934.81;5100531;28;20043;-82
2023/05/31 21:37:42;;;;;;;15.20;3.33;;;;;;;23.23;44.37;100928.47;5099793;28;20039;-83
2023/05/31 21:40:34;;;;;;;6.50;3.20;;;;;;;23.21;44.14;100935.59;5102404;28;20051;-83
2023/05/31 21:43:29;;;;;;;5.15;2.90;;;;;;;23.20;44.51;100931.25;5097883;28;20051;-83
2023/05/31 21:46:21;;;;;;;5.72;3.40;;;;;;;23.20;44.74;100934.81;5098549;28;20058;-83
2023/05/31 21:49:16;;;;;;;4.72;3.03;;;;;;;23.30;44.24;100933.22;5098278;28;20043;-81
2023/05/31 21:52:11;;;;;;;6.18;2.78;;;;;;;23.27;44.22;100940.34;5093687;28;20047;-82
2023/05/31 21:55:05;;;;;;;5.00;2.92;;;;;;;23.24;44.20;100929.25;5097152;28;20039;-82
2023/05/31 21:58:00;;;;;;;4.60;2.50;;;;;;;23.20;44.45;100940.34;5079186;28;20047;-82
2023/05/31 22:00:52;;;;;;;5.45;2.95;;;;;;;23.11;44.74;100933.63;5080399;28;20043;-83
2023/05/31 22:03:47;;;;;;;9.95;3.55;;;;;;;23.15;44.71;100934.41;5085939;28;20051;-83
2023/05/31 22:06:39;;;;;;;5.78;3.42;;;;;;;23.14;44.83;100939.16;5083357;28;20040;-83
2023/05/31 22:09:34;;;;;;;4.15;2.75;;;;;;;23.18;44.65;100941.94;5086320;28;20055;-82
2023/05/31 22:12:26;;;;;;;6.43;2.97;;;;;;;23.22;44.67;100934.41;5083656;28;20047;-80
2023/05/31 22:15:20;;;;;;;3.67;2.30;;;;;;;23.32;44.73;100948.28;5086662;28;20072;-82
2023/05/31 22:18:15;;;;;;;5.25;2.90;;;;;;;23.33;44.36;100932.41;5091396;28;20039;-81
2023/05/31 22:21:10;;;;;;;4.50;2.67;;;;;;;23.39;44.41;100933.63;5088405;28;20047;-81
2023/05/31 22:24:05;;;;;;;7.63;3.33;;;;;;;23.25;44.69;100931.66;5082778;28;20051;-80
2023/05/31 22:26:56;;;;;;;7.75;3.00;;;;;;;23.28;44.37;100932.81;5079875;28;20042;-81
2023/05/31 22:29:51;;;;;;;4.90;2.72;;;;;;;23.30;44.67;100933.22;5080829;28;20051;-81
2023/05/31 22:32:45;;;;;;;4.97;2.65;;;;;;;23.18;44.60;100933.59;5079983;28;20054;-80
2023/05/31 22:35:40;;;;;;;7.28;3.70;;;;;;;23.25;44.69;100933.63;5089173;28;20043;-81
2023/05/31 22:38:32;;;;;;;8.90;2.78;;;;;;;23.29;44.25;100931.63;5087297;28;20050;-81
2023/05/31 22:41:26;;;;;;;7.05;3.08;;;;;;;23.18;45.32;100934.41;5090795;28;20051;-81
2023/05/31 22:44:21;;;;;;;5.70;2.88;;;;;;;23.08;44.93;100929.63;5093313;28;20031;-81
2023/05/31 22:47:13;;;;;;;5.20;3.25;;;;;;;23.03;45.18;100930.03;5096031;28;20046;-81
2023/05/31 22:50:06;;;;;;;7.95;3.50;;;;;;;23.13;45.21;100926.47;5087925;28;20054;-82
2023/05/31 22:53:00;;;;;;;5.07;3.00;;;;;;;23.18;45.79;100933.59;5074993;28;20052;-83
2023/05/31 22:55:55;;;;;;;5.97;3.50;;;;;;;23.15;45.82;100932.44;5082968;28;20060;-83
2023/05/31 22:58:49;;;;;;;7.20;3.25;;;;;;;22.98;46.93;100927.66;5080916;28;20044;-83
2023/05/31 23:01:44;;;;;;;5.38;2.78;;;;;;;23.08;47.21;100926.06;5084619;28;20051;-83
2023/05/31 23:04:36;;;;;;;6.20;3.10;;;;;;;23.05;46.07;100924.09;5081546;28;20048;-81
2023/05/31 23:07:31;;;;;;;6.63;3.45;;;;;;;23.06;45.86;100918.13;5084820;28;20067;-80
2023/05/31 23:10:25;;;;;;;5.13;3.13;;;;;;;23.15;45.92;100929.66;5088776;28;20056;-82
2023/05/31 23:13:21;;;;;;;6.72;3.15;;;;;;;23.05;46.81;100922.13;5086212;28;20040;-81
2023/05/31 23:16:10;;;;;;;5.47;3.10;;;;;;;23.11;46.61;100925.28;5091045;28;20051;-81
2023/05/31 23:19:06;;;;;;;5.63;3.15;;;;;;;23.07;46.74;100924.47;5086307;28;20052;-81
2023/05/31 23:21:59;;;;;;;7.10;2.58;;;;;;;22.68;47.75;100918.84;5084525;28;20047;-81
2023/05/31 23:24:54;;;;;;;7.03;3.22;;;;;;;22.66;47.75;100921.19;5082774;28;20043;-81
2023/05/31 23:27:48;;;;;;;7.75;3.08;;;;;;;22.58;48.11;100915.66;5081688;28;20071;-81
2023/05/31 23:30:43;;;;;;;7.75;3.33;;;;;;;22.46;48.30;100915.19;5083868;28;20044;-81
2023/05/31 23:33:38;;;;;;;6.97;3.90;;;;;;;22.39;48.85;100909.66;5088347;28;20043;-81
2023/05/31 23:36:30;;;;;;;8.70;2.95;;;;;;;22.34;48.67;100910.03;5086018;28;20051;-81
2023/05/31 23:39:25;;;;;;;8.75;3.53;;;;;;;22.39;48.48;100915.19;5089641;28;20408;-81
2023/05/31 23:42:19;;;;;;;8.38;3.40;;;;;;;22.48;47.72;100910.88;5086535;28;20048;-81
2023/05/31 23:45:12;;;;;;;10.07;3.80;;;;;;;22.53;47.35;100913.25;5083318;28;20040;-81
2023/05/31 23:48:07;;;;;;;9.77;3.38;;;;;;;22.35;47.83;100901.31;5082905;28;20051;-81
2023/05/31 23:50:59;;;;;;;7.35;3.42;;;;;;;22.50;47.49;100902.94;5083499;28;20051;-81
2023/05/31 23:53:54;;;;;;;7.32;3.50;;;;;;;22.42;48.26;100903.31;5089765;28;20498;-81
2023/05/31 23:56:48;;;;;;;6.05;3.30;;;;;;;22.32;48.29;100906.84;5084327;28;20047;-82
2023/05/31 23:59:43;;;;;;;11.98;3.08;;;;;;;22.46;47.93;100906.88;5081466;28;20051;-81
